Santa Lucia — A8IP5 — position and weather

sailwx.info

Track history (hours):
 
Tides and Currents Weather Stations Pressure Air Temp Water Temp Dewpoint Dewpoint Depression Visibility Wind Speed Wind Dir Waves Ship Positions

Santa Lucia

Last reported at 2015-May-21 12:24 UTC. Time now 2015-May-23 08:52 UTC.
Position N 37°44' W 074°44'.

Length 143 m; beam 22 m.

Type: Ship. MMSI: 636091017.

Date/timePositionNaut miles runAvg speedWind from/ knotsBaromVisibWave heightAir tempDewpointWater temp
2015-May-21 12:24N 37°44' W 074°44'4219.7
2015-May-21 10:16N 38°25' W 074°43'1419.7
2015-May-21 09:33N 38°37' W 074°53'1817.8
2015-May-21 08:33N 38°53' W 075°05'1919.1
2015-May-21 07:34N 39°10' W 075°15'1818.2
2015-May-21 06:33N 39°24' W 075°30'1514.6
2015-May-21 05:33N 39°38' W 075°34'1110.5
2015-May-21 04:33N 39°47' W 075°27'9 9.3
2015-May-21 03:33N 39°51' W 075°16'7 7.1
2015-May-21 02:33N 39°54' W 075°08'1 0.6
2015-May-21 01:33N 39°55' W 075°08'0 0.0
2015-May-21 00:32N 39°55' W 075°08'0 0.0
2015-May-20 23:32N 39°55' W 075°08'0 0.0
2015-May-20 22:33N 39°55' W 075°08'0 0.0
2015-May-20 21:32N 39°55' W 075°08'0 0.0
2015-May-20 20:33N 39°55' W 075°08'0 0.0
2015-May-20 19:32N 39°55' W 075°08'0 0.0
2015-May-20 18:33N 39°55' W 075°08'0 0.0
2015-May-20 17:27N 39°55' W 075°08'0 0.0
2015-May-20 16:32N 39°55' W 075°08'0 0.0
2015-May-20 15:33N 39°55' W 075°08'0 0.0
2015-May-20 14:26N 39°55' W 075°08'0 0.0
2015-May-20 13:31N 39°55' W 075°08'0 0.0
2015-May-20 12:26N 39°55' W 075°08'0 0.0
2015-May-20 11:32N 39°55' W 075°08'0 0.0
2015-May-20 10:33N 39°55' W 075°08'0 0.0
2015-May-20 09:31N 39°55' W 075°08'0 0.0
2015-May-20 08:32N 39°55' W 075°08'0 0.0
2015-May-20 07:31N 39°55' W 075°08'0 0.0
2015-May-20 06:31N 39°55' W 075°08'0 0.0
2015-May-20 05:31N 39°55' W 075°08'0 0.0
2015-May-20 04:32N 39°55' W 075°08'0 0.0
2015-May-20 03:32N 39°55' W 075°08'0 0.0
2015-May-20 02:33N 39°55' W 075°08'0 0.0
2015-May-20 01:29N 39°55' W 075°08'0 0.0
2015-May-20 00:26N 39°55' W 075°08'0 0.0
2015-May-19 23:31N 39°55' W 075°08'4 3.9
2015-May-19 22:33N 39°53' W 075°12'1010.3
2015-May-19 21:33N 39°49' W 075°24'1212.0
2015-May-19 20:33N 39°39' W 075°33'1312.6
2015-May-19 19:33N 39°26' W 075°32'1515.2
2015-May-19 18:33N 39°15' W 075°19'1615.6
2015-May-19 17:33N 39°01' W 075°09'1414.4
2015-May-19 16:34N 38°48' W 075°03'1211.9
2015-May-19 15:33N 38°39' W 074°52'2217.4
2015-May-19 14:19N 38°20' W 074°39'1718.4
2015-May-19 13:23N 38°03' W 074°40'1518.4
2015-May-19 12:33N 37°48' W 074°40'  
Track history (hours):
 
Tides and Currents Weather Stations Pressure Air Temp Water Temp Dewpoint Dewpoint Depression Visibility Wind Speed Wind Dir Waves Ship Positions

Santa Lucia

Last reported at 2015-May-21 12:24 UTC. Time now 2015-May-23 08:52 UTC.
Position N 37°44' W 074°44'.

Length 143 m; beam 22 m.

Type: Ship. MMSI: 636091017.

Date/timePositionNaut miles runAvg speedWind from/ knotsBaromVisibWave heightAir tempDewpointWater temp
2015-May-21 12:24N 37°44' W 074°44'4219.7
2015-May-21 10:16N 38°25' W 074°43'1419.7
2015-May-21 09:33N 38°37' W 074°53'1817.8
2015-May-21 08:33N 38°53' W 075°05'1919.1
2015-May-21 07:34N 39°10' W 075°15'1818.2
2015-May-21 06:33N 39°24' W 075°30'1514.6
2015-May-21 05:33N 39°38' W 075°34'1110.5
2015-May-21 04:33N 39°47' W 075°27'9 9.3
2015-May-21 03:33N 39°51' W 075°16'7 7.1
2015-May-21 02:33N 39°54' W 075°08'1 0.6
2015-May-21 01:33N 39°55' W 075°08'0 0.0
2015-May-21 00:32N 39°55' W 075°08'0 0.0
2015-May-20 23:32N 39°55' W 075°08'0 0.0
2015-May-20 22:33N 39°55' W 075°08'0 0.0
2015-May-20 21:32N 39°55' W 075°08'0 0.0
2015-May-20 20:33N 39°55' W 075°08'0 0.0
2015-May-20 19:32N 39°55' W 075°08'0 0.0
2015-May-20 18:33N 39°55' W 075°08'0 0.0
2015-May-20 17:27N 39°55' W 075°08'0 0.0
2015-May-20 16:32N 39°55' W 075°08'0 0.0
2015-May-20 15:33N 39°55' W 075°08'0 0.0
2015-May-20 14:26N 39°55' W 075°08'0 0.0
2015-May-20 13:31N 39°55' W 075°08'0 0.0
2015-May-20 12:26N 39°55' W 075°08'0 0.0
2015-May-20 11:32N 39°55' W 075°08'0 0.0
2015-May-20 10:33N 39°55' W 075°08'0 0.0
2015-May-20 09:31N 39°55' W 075°08'0 0.0
2015-May-20 08:32N 39°55' W 075°08'0 0.0
2015-May-20 07:31N 39°55' W 075°08'0 0.0
2015-May-20 06:31N 39°55' W 075°08'0 0.0
2015-May-20 05:31N 39°55' W 075°08'0 0.0
2015-May-20 04:32N 39°55' W 075°08'0 0.0
2015-May-20 03:32N 39°55' W 075°08'0 0.0
2015-May-20 02:33N 39°55' W 075°08'0 0.0
2015-May-20 01:29N 39°55' W 075°08'0 0.0
2015-May-20 00:26N 39°55' W 075°08'0 0.0
2015-May-19 23:31N 39°55' W 075°08'4 3.9
2015-May-19 22:33N 39°53' W 075°12'1010.3
2015-May-19 21:33N 39°49' W 075°24'1212.0
2015-May-19 20:33N 39°39' W 075°33'1312.6
2015-May-19 19:33N 39°26' W 075°32'1515.2
2015-May-19 18:33N 39°15' W 075°19'1615.6
2015-May-19 17:33N 39°01' W 075°09'1414.4
2015-May-19 16:34N 38°48' W 075°03'1211.9
2015-May-19 15:33N 38°39' W 074°52'2217.4
2015-May-19 14:19N 38°20' W 074°39'1718.4
2015-May-19 13:23N 38°03' W 074°40'1518.4
2015-May-19 12:33N 37°48' W 074°40'  

Dump ship's entire track history